createdAt,value
2023-04-30T00:01:13.954Z,17.60
2023-04-30T00:03:40.994Z,17.60
2023-04-30T00:06:08.031Z,17.60
2023-04-30T00:08:35.290Z,17.60
2023-04-30T00:11:02.355Z,17.60
2023-04-30T00:13:29.307Z,17.50
2023-04-30T00:15:56.421Z,17.50
2023-04-30T00:18:23.271Z,17.50
2023-04-30T00:20:51.990Z,17.50
2023-04-30T00:23:18.954Z,17.50
2023-04-30T00:25:45.812Z,17.50
2023-04-30T00:28:12.637Z,17.40
2023-04-30T00:30:39.539Z,17.40
2023-04-30T00:33:06.628Z,17.40
2023-04-30T00:35:33.724Z,17.30
2023-04-30T00:38:00.773Z,17.40
2023-04-30T00:40:27.708Z,17.30
2023-04-30T00:42:55.949Z,17.30
2023-04-30T00:45:23.571Z,17.30
2023-04-30T00:47:50.754Z,17.20
2023-04-30T00:50:18.137Z,17.20
2023-04-30T00:52:45.749Z,17.20
2023-04-30T00:55:13.443Z,17.20
2023-04-30T00:57:40.999Z,17.20
2023-04-30T01:00:11.582Z,17.10
2023-04-30T01:02:38.812Z,17.10
2023-04-30T01:05:06.886Z,17.10
2023-04-30T01:07:36.034Z,17.10
2023-04-30T01:10:03.448Z,17.10
2023-04-30T01:12:41.690Z,17.00
2023-04-30T01:15:29.980Z,17.00
2023-04-30T01:18:09.272Z,17.00
2023-04-30T01:20:44.476Z,16.90
2023-04-30T01:23:38.536Z,16.90
2023-04-30T01:26:24.301Z,16.90
2023-04-30T01:28:53.502Z,16.90
2023-04-30T01:31:20.618Z,16.80
2023-04-30T01:33:47.752Z,16.80
2023-04-30T01:36:39.578Z,16.70
2023-04-30T01:39:28.473Z,16.70
2023-04-30T01:42:11.099Z,16.60
2023-04-30T01:44:53.372Z,16.60
2023-04-30T01:47:41.420Z,16.60
2023-04-30T01:50:54.747Z,16.50
2023-04-30T01:53:27.824Z,16.40
2023-04-30T01:56:08.542Z,16.40
2023-04-30T01:58:36.182Z,16.40
2023-04-30T02:01:03.728Z,16.40
2023-04-30T02:03:30.890Z,16.40
2023-04-30T02:05:59.135Z,16.30
2023-04-30T02:08:27.272Z,16.30
2023-04-30T02:10:54.162Z,16.20
2023-04-30T02:13:21.187Z,16.10
2023-04-30T02:15:48.110Z,16.00
2023-04-30T02:21:18.452Z,15.90
2023-04-30T02:23:45.915Z,16.00
2023-04-30T02:26:12.883Z,15.90
2023-04-30T02:28:39.968Z,15.80
2023-04-30T02:31:07.133Z,15.80
2023-04-30T02:33:34.447Z,15.90
2023-04-30T02:36:02.448Z,15.90
2023-04-30T02:38:29.307Z,15.80
2023-04-30T02:40:56.220Z,15.80
2023-04-30T02:43:23.195Z,15.80
2023-04-30T02:45:50.243Z,15.70
2023-04-30T02:48:17.204Z,15.70
2023-04-30T02:50:45.532Z,15.70
2023-04-30T02:53:12.482Z,15.70
2023-04-30T02:55:39.401Z,15.80
2023-04-30T02:58:06.338Z,15.70
2023-04-30T03:00:33.292Z,15.70
2023-04-30T03:03:00.368Z,15.70
2023-04-30T03:05:28.354Z,15.70
2023-04-30T03:07:55.781Z,15.70
2023-04-30T03:10:22.717Z,15.60
2023-04-30T03:12:49.646Z,15.60
2023-04-30T03:15:18.187Z,15.60
2023-04-30T03:17:46.294Z,15.60
2023-04-30T03:20:14.336Z,15.60
2023-04-30T03:22:41.882Z,15.50
2023-04-30T03:25:10.777Z,15.50
2023-04-30T03:27:37.803Z,15.40
2023-04-30T03:30:05.514Z,15.40
2023-04-30T03:32:32.518Z,15.40
2023-04-30T03:35:00.045Z,15.40
2023-04-30T03:37:26.953Z,15.40
2023-04-30T03:39:54.041Z,15.40
2023-04-30T03:42:21.214Z,15.40
2023-04-30T03:44:48.181Z,15.40
2023-04-30T03:47:15.216Z,15.40
2023-04-30T03:49:42.427Z,15.30
2023-04-30T03:52:09.915Z,15.30
2023-04-30T03:54:36.943Z,15.30
2023-04-30T03:57:04.701Z,15.40
2023-04-30T03:59:32.735Z,15.30
2023-04-30T04:02:01.807Z,15.30
2023-04-30T04:04:30.317Z,15.30
2023-04-30T04:06:57.603Z,15.40
2023-04-30T04:09:24.683Z,15.30
2023-04-30T04:11:51.860Z,15.40
2023-04-30T04:14:18.845Z,15.30
2023-04-30T04:16:47.151Z,15.40
2023-04-30T04:19:14.325Z,15.40
2023-04-30T04:21:41.443Z,15.30
2023-04-30T04:24:14.469Z,15.40
2023-04-30T04:26:41.747Z,15.40
2023-04-30T04:29:10.439Z,15.40
2023-04-30T04:31:39.045Z,15.40
2023-04-30T04:34:06.296Z,15.30
2023-04-30T04:36:34.367Z,15.30
2023-04-30T04:39:02.382Z,15.30
2023-04-30T04:41:34.007Z,15.30
2023-04-30T04:44:03.419Z,15.40
2023-04-30T04:46:32.289Z,15.30
2023-04-30T04:48:59.633Z,15.30
2023-04-30T04:51:27.070Z,15.30
2023-04-30T04:53:55.100Z,15.40
2023-04-30T04:56:22.336Z,15.30
2023-04-30T04:58:49.558Z,15.30
2023-04-30T05:01:21.469Z,15.30
2023-04-30T05:03:49.681Z,15.40
2023-04-30T05:06:20.046Z,15.40
2023-04-30T05:08:49.598Z,15.40
2023-04-30T05:11:17.433Z,15.50
2023-04-30T05:13:44.587Z,15.50
2023-04-30T05:16:11.837Z,15.50
2023-04-30T05:18:38.940Z,15.60
2023-04-30T05:21:06.479Z,15.60
2023-04-30T05:23:33.450Z,15.60
2023-04-30T05:26:00.790Z,15.70
2023-04-30T05:28:37.092Z,15.70
2023-04-30T05:31:04.216Z,15.30
2023-04-30T05:33:31.104Z,15.80
2023-04-30T05:35:57.998Z,15.80
2023-04-30T05:38:25.629Z,15.80
2023-04-30T05:40:52.862Z,15.90
2023-04-30T05:43:19.869Z,15.90
2023-04-30T05:45:47.266Z,16.00
2023-04-30T05:48:14.508Z,16.00
2023-04-30T05:50:41.578Z,16.00
2023-04-30T05:53:08.944Z,16.00
2023-04-30T05:55:36.517Z,16.00
2023-04-30T05:58:03.601Z,16.00
2023-04-30T06:00:31.218Z,16.00
2023-04-30T06:02:58.177Z,16.10
2023-04-30T06:05:25.609Z,16.10
2023-04-30T06:07:52.720Z,16.20
2023-04-30T06:10:19.694Z,16.30
2023-04-30T06:12:46.732Z,16.30
2023-04-30T06:15:13.647Z,16.30
2023-04-30T06:17:40.779Z,16.30
2023-04-30T06:20:08.363Z,16.30
2023-04-30T06:22:35.324Z,16.40
2023-04-30T06:25:03.512Z,16.30
2023-04-30T06:27:32.485Z,16.30
2023-04-30T06:30:01.134Z,16.40
2023-04-30T06:32:28.281Z,16.40
2023-04-30T06:34:55.819Z,16.40
2023-04-30T06:37:22.875Z,16.40
2023-04-30T06:39:50.553Z,16.50
2023-04-30T06:42:18.530Z,16.60
2023-04-30T06:44:47.248Z,16.60
2023-04-30T06:47:14.288Z,16.70
2023-04-30T06:49:41.216Z,16.70
2023-04-30T06:52:08.616Z,16.80
2023-04-30T06:54:35.555Z,16.80
2023-04-30T06:57:03.246Z,16.90
2023-04-30T06:59:30.169Z,17.00
2023-04-30T07:01:57.293Z,17.20
2023-04-30T07:04:24.683Z,17.20
2023-04-30T07:06:51.714Z,17.40
2023-04-30T07:09:18.819Z,17.50
2023-04-30T07:11:45.769Z,17.70
2023-04-30T07:14:12.614Z,17.80
2023-04-30T07:16:39.502Z,17.90
2023-04-30T07:19:06.520Z,18.10
2023-04-30T07:21:33.521Z,18.20
2023-04-30T07:24:00.429Z,18.30
2023-04-30T07:26:27.450Z,18.30
2023-04-30T07:28:54.471Z,18.30
2023-04-30T07:31:21.500Z,18.30
2023-04-30T07:33:50.619Z,18.30
2023-04-30T07:36:17.503Z,18.30
2023-04-30T07:38:44.499Z,18.30
2023-04-30T07:41:11.340Z,18.40
2023-04-30T07:43:38.274Z,18.50
2023-04-30T07:46:05.436Z,18.50
2023-04-30T07:48:32.578Z,18.60
2023-04-30T07:50:59.448Z,18.60
2023-04-30T07:53:26.448Z,18.70
2023-04-30T07:55:53.264Z,18.70
2023-04-30T07:58:20.230Z,18.70
2023-04-30T08:00:47.882Z,18.80
2023-04-30T08:03:14.955Z,18.90
2023-04-30T08:05:41.985Z,18.90
2023-04-30T08:08:08.903Z,19.00
2023-04-30T08:10:37.293Z,19.10
2023-04-30T08:13:05.661Z,19.10
2023-04-30T08:15:34.259Z,19.10
2023-04-30T08:18:05.355Z,19.10
2023-04-30T08:20:33.177Z,18.90
2023-04-30T08:23:00.169Z,19.20
2023-04-30T08:25:27.592Z,19.20
2023-04-30T08:27:54.541Z,19.20
2023-04-30T08:30:21.512Z,19.30
2023-04-30T08:32:49.552Z,19.30
2023-04-30T08:35:19.808Z,19.50
2023-04-30T08:37:46.785Z,19.40
2023-04-30T08:40:14.141Z,19.50
2023-04-30T08:42:46.857Z,19.50
2023-04-30T08:45:14.597Z,19.50
2023-04-30T08:47:42.012Z,19.50
2023-04-30T08:50:09.608Z,19.50
2023-04-30T08:52:38.860Z,19.50
2023-04-30T08:55:08.808Z,19.60
2023-04-30T08:57:38.488Z,19.60
2023-04-30T09:00:07.018Z,19.70
2023-04-30T09:02:34.929Z,19.70
2023-04-30T09:05:02.316Z,19.60
2023-04-30T09:07:33.889Z,19.60
2023-04-30T09:10:00.907Z,19.60
2023-04-30T09:12:27.832Z,19.60
2023-04-30T09:15:03.829Z,19.60
2023-04-30T09:17:32.183Z,19.60
2023-04-30T09:20:09.013Z,19.50
2023-04-30T09:22:37.980Z,19.60
2023-04-30T09:25:05.754Z,19.60
2023-04-30T09:27:32.962Z,19.50
2023-04-30T09:30:00.109Z,19.60
2023-04-30T09:32:27.483Z,19.70
2023-04-30T09:34:56.085Z,19.70
2023-04-30T09:37:35.074Z,19.30
2023-04-30T09:40:02.455Z,19.70
2023-04-30T09:42:29.412Z,19.80
2023-04-30T09:44:56.396Z,19.80
2023-04-30T09:47:23.306Z,19.80
2023-04-30T09:49:54.296Z,19.80
2023-04-30T09:52:21.782Z,19.90
2023-04-30T09:54:49.649Z,20.00
2023-04-30T09:57:17.074Z,20.10
2023-04-30T09:59:46.271Z,20.20
2023-04-30T10:02:17.368Z,20.30
2023-04-30T10:04:45.536Z,20.30
2023-04-30T10:07:24.472Z,20.40
2023-04-30T10:09:59.429Z,20.40
2023-04-30T10:12:40.638Z,20.50
2023-04-30T10:15:14.358Z,20.50
2023-04-30T10:17:42.553Z,20.60
2023-04-30T10:20:11.177Z,20.60
2023-04-30T10:22:38.847Z,20.80
2023-04-30T10:25:07.163Z,20.80
2023-04-30T10:27:36.348Z,21.00
2023-04-30T10:30:05.315Z,21.00
2023-04-30T10:33:07.350Z,21.10
2023-04-30T10:36:09.599Z,21.10
2023-04-30T10:38:38.488Z,21.20
2023-04-30T10:41:07.792Z,21.10
2023-04-30T10:43:37.085Z,21.10
2023-04-30T10:46:04.810Z,21.10
2023-04-30T10:48:35.714Z,21.10
2023-04-30T10:51:02.761Z,21.00
2023-04-30T10:53:33.944Z,21.10
2023-04-30T10:56:08.781Z,21.10
2023-04-30T10:58:40.222Z,21.10
2023-04-30T11:01:12.323Z,21.10
2023-04-30T11:03:43.093Z,21.10
2023-04-30T11:06:15.225Z,21.20
2023-04-30T11:08:46.560Z,21.20
2023-04-30T11:11:21.352Z,21.20
2023-04-30T11:14:01.215Z,21.30
2023-04-30T11:16:35.063Z,21.40
2023-04-30T11:19:13.892Z,21.50
2023-04-30T11:22:05.842Z,21.70
2023-04-30T11:24:55.174Z,22.00
2023-04-30T11:27:29.862Z,22.20
2023-04-30T11:29:58.302Z,22.30
2023-04-30T11:32:31.764Z,22.30
2023-04-30T11:34:59.059Z,22.30
2023-04-30T11:37:33.490Z,22.30
2023-04-30T11:40:04.147Z,22.20
2023-04-30T11:42:34.896Z,22.20
2023-04-30T11:45:13.146Z,22.10
2023-04-30T11:47:40.806Z,22.10
2023-04-30T11:50:13.112Z,22.00
2023-04-30T11:52:55.306Z,22.00
2023-04-30T11:55:27.980Z,22.00
2023-04-30T11:58:02.302Z,21.90
2023-04-30T12:00:30.674Z,21.90
2023-04-30T12:03:00.486Z,22.00
2023-04-30T12:05:28.156Z,21.90
2023-04-30T12:08:08.155Z,22.00
2023-04-30T12:10:36.056Z,22.00
2023-04-30T12:13:02.998Z,22.20
2023-04-30T12:15:29.987Z,22.50
2023-04-30T12:17:58.881Z,22.60
2023-04-30T12:20:28.591Z,22.80
2023-04-30T12:22:55.618Z,22.80
2023-04-30T12:25:23.578Z,22.90
2023-04-30T12:27:52.792Z,22.80
2023-04-30T12:30:21.740Z,22.80
2023-04-30T12:32:53.506Z,22.70
2023-04-30T12:35:22.740Z,22.60
2023-04-30T12:37:54.802Z,22.60
2023-04-30T12:40:27.068Z,22.50
2023-04-30T12:43:02.190Z,22.40
2023-04-30T12:45:47.646Z,22.50
2023-04-30T12:48:15.960Z,22.70
2023-04-30T12:50:47.195Z,22.90
2023-04-30T12:53:14.196Z,23.20
2023-04-30T12:55:42.111Z,23.50
2023-04-30T12:58:14.463Z,23.80
2023-04-30T13:00:46.198Z,24.00
2023-04-30T13:03:14.009Z,24.30
2023-04-30T13:05:42.173Z,24.50
2023-04-30T13:08:09.792Z,24.60
2023-04-30T13:10:36.689Z,24.70
2023-04-30T13:13:03.533Z,24.70
2023-04-30T13:15:30.498Z,24.70
2023-04-30T13:17:57.729Z,24.70
2023-04-30T13:20:27.622Z,24.60
2023-04-30T13:22:54.710Z,24.60
2023-04-30T13:25:22.361Z,24.50
2023-04-30T13:27:49.283Z,24.50
2023-04-30T13:30:16.205Z,24.30
2023-04-30T13:32:43.301Z,24.20
2023-04-30T13:35:11.402Z,24.10
2023-04-30T13:37:39.070Z,23.90
2023-04-30T13:40:09.690Z,23.70
2023-04-30T13:42:38.842Z,23.60
2023-04-30T13:45:07.166Z,23.70
2023-04-30T13:47:35.639Z,23.80
2023-04-30T13:50:03.415Z,23.90
2023-04-30T13:52:30.398Z,24.10
2023-04-30T13:54:57.569Z,24.20
2023-04-30T13:57:24.889Z,24.50
2023-04-30T13:59:52.039Z,24.70
2023-04-30T14:02:19.104Z,24.80
2023-04-30T14:04:58.022Z,25.10
2023-04-30T14:07:29.692Z,25.20
2023-04-30T14:09:56.809Z,25.40
2023-04-30T14:12:24.595Z,25.70
2023-04-30T14:14:52.024Z,25.90
2023-04-30T14:17:19.227Z,26.00
2023-04-30T14:19:46.185Z,26.30
2023-04-30T14:22:13.460Z,26.40
2023-04-30T14:24:40.582Z,26.60
2023-04-30T14:27:07.652Z,26.80
2023-04-30T14:29:34.481Z,27.00
2023-04-30T14:32:01.958Z,27.10
2023-04-30T14:34:28.871Z,27.30
2023-04-30T14:36:59.286Z,27.40
2023-04-30T14:39:27.578Z,27.50
2023-04-30T14:41:54.505Z,27.60
2023-04-30T14:44:26.534Z,27.70
2023-04-30T14:46:54.178Z,27.80
2023-04-30T14:49:21.401Z,27.70
2023-04-30T14:51:48.359Z,27.50
2023-04-30T14:54:15.495Z,27.30
2023-04-30T14:56:42.648Z,27.20
2023-04-30T14:59:10.288Z,27.20
2023-04-30T15:01:41.128Z,27.00
2023-04-30T15:04:08.188Z,27.10
2023-04-30T15:06:35.112Z,27.00
2023-04-30T15:09:02.791Z,27.00
2023-04-30T15:11:29.789Z,26.90
2023-04-30T15:13:57.077Z,26.90
2023-04-30T15:16:24.723Z,26.70
2023-04-30T15:18:52.022Z,26.70
2023-04-30T15:21:19.140Z,26.30
2023-04-30T15:23:46.105Z,26.10
2023-04-30T15:26:13.389Z,26.00
2023-04-30T15:28:40.569Z,26.00
2023-04-30T15:31:07.917Z,26.00
2023-04-30T15:33:39.774Z,26.00
2023-04-30T15:36:06.820Z,26.00
2023-04-30T15:38:35.442Z,26.10
2023-04-30T15:41:02.979Z,26.20
2023-04-30T15:43:32.504Z,26.30
2023-04-30T15:45:59.601Z,26.20
2023-04-30T15:48:27.112Z,26.10
2023-04-30T15:50:54.099Z,25.90
2023-04-30T15:53:21.638Z,26.00
2023-04-30T15:55:49.650Z,25.60
2023-04-30T15:58:16.775Z,25.50
2023-04-30T16:00:44.050Z,25.50
2023-04-30T16:03:11.861Z,25.60
2023-04-30T16:05:40.626Z,25.50
2023-04-30T16:08:10.465Z,25.50
2023-04-30T16:10:38.862Z,25.40
2023-04-30T16:13:06.742Z,25.30
2023-04-30T16:15:33.897Z,25.20
2023-04-30T16:18:01.323Z,25.40
2023-04-30T16:20:28.596Z,25.50
2023-04-30T16:22:56.535Z,25.60
2023-04-30T16:25:23.723Z,25.60
2023-04-30T16:27:51.756Z,25.60
2023-04-30T16:30:19.177Z,25.70
2023-04-30T16:32:46.199Z,25.80
2023-04-30T16:35:13.393Z,25.80
2023-04-30T16:37:40.552Z,25.90
2023-04-30T16:40:08.349Z,25.80
2023-04-30T16:42:35.643Z,25.70
2023-04-30T16:45:04.094Z,25.40
2023-04-30T16:47:31.555Z,25.10
2023-04-30T16:49:58.815Z,25.00
2023-04-30T16:52:26.100Z,24.80
2023-04-30T16:54:53.046Z,24.50
2023-04-30T16:57:21.485Z,24.40
2023-04-30T16:59:50.739Z,24.20
2023-04-30T17:02:18.594Z,24.00
2023-04-30T17:04:45.684Z,23.90
2023-04-30T17:07:13.074Z,23.70
2023-04-30T17:09:40.307Z,23.50
2023-04-30T17:12:08.152Z,23.50
2023-04-30T17:14:37.403Z,23.40
2023-04-30T17:17:04.696Z,23.30
2023-04-30T17:19:31.687Z,23.20
2023-04-30T17:21:59.122Z,23.10
2023-04-30T17:24:26.678Z,23.00
2023-04-30T17:26:54.233Z,22.90
2023-04-30T17:29:22.560Z,22.90
2023-04-30T17:31:49.829Z,22.80
2023-04-30T17:34:16.825Z,22.70
2023-04-30T17:36:44.715Z,22.70
2023-04-30T17:39:12.978Z,22.60
2023-04-30T17:41:40.454Z,22.50
2023-04-30T17:44:07.704Z,22.50
2023-04-30T17:46:35.015Z,22.40
2023-04-30T17:49:03.764Z,22.30
2023-04-30T17:51:32.538Z,22.20
2023-04-30T17:53:59.970Z,22.20
2023-04-30T17:56:30.327Z,22.10
2023-04-30T17:58:58.302Z,22.00
2023-04-30T18:01:26.054Z,21.90
2023-04-30T18:03:54.501Z,21.90
2023-04-30T18:06:22.803Z,21.90
2023-04-30T18:08:50.168Z,21.80
2023-04-30T18:11:17.801Z,21.80
2023-04-30T18:13:45.134Z,21.70
2023-04-30T18:16:13.388Z,21.60
2023-04-30T18:18:41.330Z,21.60
2023-04-30T18:21:11.125Z,21.50
2023-04-30T18:23:38.583Z,21.50
2023-04-30T18:26:06.117Z,21.50
2023-04-30T18:28:34.104Z,21.40
2023-04-30T18:31:02.160Z,21.40
2023-04-30T18:33:29.557Z,21.40
2023-04-30T18:35:58.633Z,21.40
2023-04-30T18:38:27.096Z,21.30
2023-04-30T18:40:56.220Z,21.40
2023-04-30T18:43:23.626Z,21.30
2023-04-30T18:45:51.524Z,21.30
2023-04-30T18:48:19.474Z,21.20
2023-04-30T18:50:47.118Z,21.20
2023-04-30T18:53:14.218Z,21.20
2023-04-30T18:55:41.914Z,21.20
2023-04-30T18:58:10.097Z,21.10
2023-04-30T19:00:37.482Z,21.10
2023-04-30T19:03:04.810Z,21.10
2023-04-30T19:05:35.262Z,21.10
2023-04-30T19:08:03.412Z,21.00
2023-04-30T19:10:30.481Z,21.10
2023-04-30T19:12:57.620Z,21.00
2023-04-30T19:15:25.843Z,21.10
2023-04-30T19:17:52.975Z,21.00
2023-04-30T19:20:20.161Z,21.00
2023-04-30T19:22:50.230Z,21.00
2023-04-30T19:25:18.175Z,20.90
2023-04-30T19:27:46.221Z,20.90
2023-04-30T19:30:14.861Z,20.90
2023-04-30T19:32:42.599Z,20.80
2023-04-30T19:35:10.651Z,20.80
2023-04-30T19:37:38.329Z,20.80
2023-04-30T19:40:12.456Z,20.80
2023-04-30T19:42:40.390Z,20.70
2023-04-30T19:45:09.683Z,20.70
2023-04-30T19:47:38.235Z,20.70
2023-04-30T19:50:06.129Z,20.70
2023-04-30T19:52:34.501Z,20.70
2023-04-30T19:55:02.648Z,20.70
2023-04-30T19:57:34.915Z,20.60
2023-04-30T20:00:05.225Z,20.60
2023-04-30T20:02:34.223Z,20.50
2023-04-30T20:05:01.599Z,20.50
2023-04-30T20:07:28.698Z,20.50
2023-04-30T20:09:56.265Z,20.50
2023-04-30T20:12:24.243Z,20.50
2023-04-30T20:14:51.706Z,20.50
2023-04-30T20:17:19.838Z,20.40
2023-04-30T20:19:46.763Z,20.40
2023-04-30T20:22:14.461Z,20.40
2023-04-30T20:24:44.989Z,20.40
2023-04-30T20:27:15.584Z,20.30
2023-04-30T20:29:42.937Z,20.30
2023-04-30T20:32:10.125Z,20.30
2023-04-30T20:34:38.851Z,20.20
2023-04-30T20:37:05.920Z,20.20
2023-04-30T20:39:33.271Z,20.20
2023-04-30T20:42:01.803Z,20.10
2023-04-30T20:44:28.931Z,20.10
2023-04-30T20:46:56.257Z,20.00
2023-04-30T20:49:23.606Z,20.00
2023-04-30T20:51:50.685Z,20.00
2023-04-30T20:54:17.909Z,19.90
2023-04-30T20:56:47.350Z,19.90
2023-04-30T20:59:14.867Z,19.90
2023-04-30T21:01:42.080Z,19.80
2023-04-30T21:04:09.744Z,19.80
2023-04-30T21:06:37.283Z,19.70
2023-04-30T21:09:04.865Z,19.70
2023-04-30T21:11:33.361Z,19.70
2023-04-30T21:14:00.325Z,19.70
2023-04-30T21:16:28.006Z,19.60
2023-04-30T21:18:55.026Z,19.60
2023-04-30T21:21:23.047Z,19.60
2023-04-30T21:23:50.577Z,19.50
2023-04-30T21:26:18.222Z,19.50
2023-04-30T21:28:46.022Z,19.50
2023-04-30T21:31:13.943Z,19.40
2023-04-30T21:33:41.327Z,19.40
2023-04-30T21:36:08.865Z,19.40
2023-04-30T21:38:37.311Z,19.40
2023-04-30T21:41:05.137Z,19.30
2023-04-30T21:43:32.153Z,19.30
2023-04-30T21:46:03.580Z,19.30
2023-04-30T21:48:31.722Z,19.20
2023-04-30T21:50:58.598Z,19.20
2023-04-30T21:53:26.581Z,19.20
2023-04-30T21:55:53.858Z,19.20
2023-04-30T21:58:21.279Z,19.10
2023-04-30T22:00:49.618Z,19.10
2023-04-30T22:03:17.046Z,19.10
2023-04-30T22:05:44.367Z,19.10
2023-04-30T22:08:11.261Z,19.10
2023-04-30T22:10:38.494Z,19.00
2023-04-30T22:13:06.006Z,19.10
2023-04-30T22:15:47.017Z,19.00
2023-04-30T22:18:15.147Z,19.00
2023-04-30T22:20:42.281Z,19.00
2023-04-30T22:23:09.475Z,18.90
2023-04-30T22:25:36.606Z,18.90
2023-04-30T22:28:03.940Z,18.90
2023-04-30T22:30:31.561Z,18.90
2023-04-30T22:32:59.139Z,18.80
2023-04-30T22:35:27.959Z,18.80
2023-04-30T22:37:55.328Z,18.80
2023-04-30T22:40:22.695Z,18.80
2023-04-30T22:42:50.113Z,18.80
2023-04-30T22:45:17.521Z,18.80
2023-04-30T22:47:45.960Z,18.80
2023-04-30T22:50:13.631Z,18.70
2023-04-30T22:52:41.113Z,18.70
2023-04-30T22:55:09.135Z,18.70
2023-04-30T22:57:36.534Z,18.60
2023-04-30T23:00:05.991Z,18.60
2023-04-30T23:02:33.078Z,18.60
2023-04-30T23:05:01.447Z,18.50
2023-04-30T23:07:28.471Z,18.50
2023-04-30T23:09:57.686Z,18.50
2023-04-30T23:12:25.027Z,18.50
2023-04-30T23:14:52.353Z,18.40
2023-04-30T23:17:19.568Z,18.40
2023-04-30T23:19:46.790Z,18.40
2023-04-30T23:22:14.085Z,18.40
2023-04-30T23:24:41.437Z,18.30
2023-04-30T23:27:08.941Z,18.30
2023-04-30T23:29:36.579Z,18.30
2023-04-30T23:32:04.619Z,18.30
2023-04-30T23:34:32.239Z,18.30
2023-04-30T23:36:59.295Z,18.20
2023-04-30T23:39:27.599Z,18.20
2023-04-30T23:41:54.902Z,18.20
2023-04-30T23:44:22.339Z,18.20
2023-04-30T23:46:51.643Z,18.10
2023-04-30T23:49:18.929Z,18.20
2023-04-30T23:51:45.925Z,18.10
2023-04-30T23:54:13.308Z,18.00
2023-04-30T23:56:40.580Z,18.10
2023-04-30T23:59:07.993Z,18.00
